Time;durP1;ratioP1;P1;durP2;ratioP2;P2;SDS_P1;SDS_P2;PMS_P1;PMS_P2;Temp;Humidity;BMP_temperature;BMP_pressure;BME280_temperature;BME280_humidity;BME280_pressure;Samples;Min_cycle;Max_cycle;Signal;HPM_P1;HPM_P2
2021/09/12 00:00:40;;;;;;;;;;;18.70;99.90;;;;;;1859876;77;20110;-69
2021/09/12 00:03:07;;;;;;;;;;;18.60;99.90;;;;;;1862194;77;20455;-69
2021/09/12 00:05:34;;;;;;;;;;;18.70;99.90;;;;;;1862120;76;20177;-69
2021/09/12 00:08:01;;;;;;;;;;;18.60;99.90;;;;;;1862343;77;20204;-71
2021/09/12 00:10:28;;;;;;;;;;;18.60;99.90;;;;;;1862047;77;20162;-70
2021/09/12 00:12:56;;;;;;;;;;;18.60;99.90;;;;;;1862108;77;20125;-70
2021/09/12 00:15:23;;;;;;;;;;;18.50;99.90;;;;;;1862002;77;20467;-71
2021/09/12 00:17:50;;;;;;;;;;;18.60;99.90;;;;;;1860047;76;20423;-70
2021/09/12 00:20:17;;;;;;;;;;;18.60;99.90;;;;;;1862293;77;20162;-70
2021/09/12 00:22:44;;;;;;;;;;;18.60;99.90;;;;;;1862225;77;20407;-70
2021/09/12 00:25:11;;;;;;;;;;;18.60;99.90;;;;;;1862123;77;20156;-69
2021/09/12 00:27:37;;;;;;;;;;;18.60;99.90;;;;;;1862138;77;20180;-70
2021/09/12 00:30:05;;;;;;;;;;;18.60;99.90;;;;;;1862182;77;20193;-70
2021/09/12 00:32:33;;;;;;;;;;;18.60;99.90;;;;;;1862283;77;20121;-70
2021/09/12 00:35:04;;;;;;;;;;;18.60;99.90;;;;;;1859856;77;20166;-71
2021/09/12 00:37:28;;;;;;;;;;;18.60;99.90;;;;;;1861008;75;20153;-70
2021/09/12 00:39:55;;;;;;;;;;;18.50;99.90;;;;;;1862313;77;20881;-69
2021/09/12 00:42:22;;;;;;;;;;;18.40;99.90;;;;;;1862467;75;20189;-69
2021/09/12 00:44:49;;;;;;;;;;;18.40;99.90;;;;;;1862152;76;20502;-70
2021/09/12 00:47:15;;;;;;;;;;;18.40;99.90;;;;;;1862057;77;20192;-71
2021/09/12 00:49:43;;;;;;;;;;;18.40;99.90;;;;;;1861978;75;20165;-71
2021/09/12 00:52:11;;;;;;;;;;;18.40;99.90;;;;;;1832674;77;20786;-69
2021/09/12 00:54:38;;;;;;;;;;;18.40;99.90;;;;;;1831151;77;20164;-70
2021/09/12 00:57:06;;;;;;;;;;;18.40;99.90;;;;;;1831093;78;20136;-70
2021/09/12 00:59:34;;;;;;;;;;;18.40;99.90;;;;;;1831246;77;20128;-70
2021/09/12 01:02:03;;;;;;;;;;;18.40;99.90;;;;;;1845852;75;20156;-71
2021/09/12 01:04:30;;;;;;;;;;;18.40;99.90;;;;;;1860309;77;20411;-69
2021/09/12 01:06:56;;;;;;;;;;;18.40;99.90;;;;;;1857181;77;20179;-70
2021/09/12 01:09:23;;;;;;;;;;;18.40;99.90;;;;;;1842141;75;20421;-70
2021/09/12 01:11:50;;;;;;;;;;;18.40;99.90;;;;;;1832389;77;20163;-69
2021/09/12 01:14:18;;;;;;;;;;;18.50;99.90;;;;;;1831105;77;20171;-70
2021/09/12 01:16:45;;;;;;;;;;;18.40;99.90;;;;;;1830408;78;20199;-70
2021/09/12 01:19:12;;;;;;;;;;;18.40;99.90;;;;;;1831378;77;20159;-70
2021/09/12 01:21:39;;;;;;;;;;;18.40;99.90;;;;;;1831063;78;20472;-70
2021/09/12 01:24:07;;;;;;;;;;;18.40;99.90;;;;;;1846819;77;20169;-70
2021/09/12 01:26:34;;;;;;;;;;;18.50;99.90;;;;;;1861903;76;20411;-70
2021/09/12 01:29:01;;;;;;;;;;;18.40;99.90;;;;;;1862247;75;20169;-70
2021/09/12 01:31:29;;;;;;;;;;;18.40;99.90;;;;;;1862145;75;20446;-70
2021/09/12 01:33:56;;;;;;;;;;;18.40;99.90;;;;;;1862422;76;20169;-70
2021/09/12 01:36:23;;;;;;;;;;;18.50;99.90;;;;;;1862145;77;20478;-69
2021/09/12 01:38:50;;;;;;;;;;;18.50;99.90;;;;;;1862345;77;20376;-69
2021/09/12 01:41:17;;;;;;;;;;;18.50;99.90;;;;;;1861511;75;20161;-68
2021/09/12 01:43:50;;;;;;;;;;;18.40;99.90;;;;;;1862365;77;20540;-70
2021/09/12 01:46:18;;;;;;;;;;;18.50;99.90;;;;;;1862241;76;20181;-69
2021/09/12 01:48:45;;;;;;;;;;;18.50;99.90;;;;;;1861978;77;20126;-68
2021/09/12 01:51:12;;;;;;;;;;;18.40;99.90;;;;;;1862539;75;20200;-68
2021/09/12 01:53:39;;;;;;;;;;;18.50;99.90;;;;;;1862194;77;20177;-68
2021/09/12 01:56:06;;;;;;;;;;;18.40;99.90;;;;;;1861681;77;20184;-68
2021/09/12 01:58:33;;;;;;;;;;;18.50;99.90;;;;;;1861153;77;20380;-68
2021/09/12 02:01:00;;;;;;;;;;;18.40;99.90;;;;;;1862491;77;20158;-68
2021/09/12 02:03:26;;;;;;;;;;;18.40;99.90;;;;;;1862263;76;20114;-69
2021/09/12 02:05:53;;;;;;;;;;;18.40;99.90;;;;;;1861873;77;20185;-68
2021/09/12 02:08:20;;;;;;;;;;;18.40;99.90;;;;;;1862458;77;20173;-68
2021/09/12 02:10:47;;;;;;;;;;;18.40;99.90;;;;;;1862365;75;20129;-69
2021/09/12 02:13:14;;;;;;;;;;;18.40;99.90;;;;;;1860096;75;20191;-69
2021/09/12 02:15:40;;;;;;;;;;;18.40;99.90;;;;;;1862291;77;20525;-68
2021/09/12 02:18:07;;;;;;;;;;;18.40;99.90;;;;;;1862507;76;20153;-70
2021/09/12 02:20:34;;;;;;;;;;;18.40;99.90;;;;;;1862217;76;20173;-69
2021/09/12 02:23:01;;;;;;;;;;;18.40;99.90;;;;;;1862340;76;20405;-69
2021/09/12 02:25:28;;;;;;;;;;;18.40;99.90;;;;;;1861959;77;20178;-69
2021/09/12 02:28:14;;;;;;;;;;;18.40;99.90;;;;;;1862338;77;20169;-69
2021/09/12 02:30:42;;;;;;;;;;;18.30;99.90;;;;;;1910015;73;20159;-70
2021/09/12 02:33:09;;;;;;;;;;;18.30;99.90;;;;;;1936081;74;20114;-69
2021/09/12 02:35:36;;;;;;;;;;;18.30;99.90;;;;;;1944427;73;20508;-69
2021/09/12 02:38:03;;;;;;;;;;;18.30;99.90;;;;;;1971936;73;20208;-69
2021/09/12 02:40:30;;;;;;;;;;;18.30;99.90;;;;;;1971913;73;20229;-70
2021/09/12 02:42:56;;;;;;;;;;;18.20;99.90;;;;;;1971915;73;20198;-69
2021/09/12 02:45:23;;;;;;;;;;;18.20;99.90;;;;;;1906763;73;20170;-69
2021/09/12 02:47:50;;;;;;;;;;;18.20;99.90;;;;;;1927882;74;20436;-69
2021/09/12 02:50:17;;;;;;;;;;;18.10;99.90;;;;;;1937879;74;20195;-70
2021/09/12 02:52:44;;;;;;;;;;;18.20;99.90;;;;;;1937813;74;20379;-69
2021/09/12 02:55:11;;;;;;;;;;;18.20;99.90;;;;;;1931358;74;20288;-69
2021/09/12 02:57:38;;;;;;;;;;;18.10;99.90;;;;;;1930185;74;20244;-69
2021/09/12 03:00:05;;;;;;;;;;;18.20;99.90;;;;;;1921077;74;20226;-69
2021/09/12 03:02:32;;;;;;;;;;;18.20;99.90;;;;;;1901903;75;20146;-69
2021/09/12 03:04:59;;;;;;;;;;;18.20;99.90;;;;;;1921539;74;20208;-69
2021/09/12 03:07:25;;;;;;;;;;;18.10;99.90;;;;;;1930601;74;20192;-69
2021/09/12 03:09:52;;;;;;;;;;;18.20;99.90;;;;;;1930605;74;20176;-69
2021/09/12 03:12:19;;;;;;;;;;;18.10;99.90;;;;;;1930573;74;20230;-69
2021/09/12 03:14:46;;;;;;;;;;;18.10;99.90;;;;;;1930405;74;20181;-69
2021/09/12 03:17:13;;;;;;;;;;;18.10;99.90;;;;;;1930244;74;20514;-70
2021/09/12 03:19:40;;;;;;;;;;;18.00;99.90;;;;;;1930488;74;20193;-69
2021/09/12 03:22:07;;;;;;;;;;;18.00;99.90;;;;;;1928531;74;20145;-69
2021/09/12 03:24:34;;;;;;;;;;;18.00;99.90;;;;;;1930478;74;20196;-69
2021/09/12 03:27:01;;;;;;;;;;;17.90;99.90;;;;;;1930413;74;20181;-70
2021/09/12 03:29:28;;;;;;;;;;;18.00;99.90;;;;;;1926053;74;20213;-70
2021/09/12 03:31:55;;;;;;;;;;;18.00;99.90;;;;;;1920647;75;20146;-70
2021/09/12 03:34:22;;;;;;;;;;;18.00;99.90;;;;;;1920454;75;20209;-69
2021/09/12 03:36:48;;;;;;;;;;;17.90;99.90;;;;;;1920363;75;20278;-69
2021/09/12 03:39:15;;;;;;;;;;;17.90;99.90;;;;;;1920737;75;20423;-71
2021/09/12 03:41:42;;;;;;;;;;;17.90;99.90;;;;;;1920707;75;20212;-69
2021/09/12 03:44:09;;;;;;;;;;;17.90;99.90;;;;;;1912270;74;20123;-70
2021/09/12 03:46:36;;;;;;;;;;;18.00;99.90;;;;;;1902090;75;20151;-69
2021/09/12 03:49:03;;;;;;;;;;;18.00;99.90;;;;;;1902362;75;20174;-69
2021/09/12 03:51:30;;;;;;;;;;;17.90;99.90;;;;;;1902162;75;20335;-69
2021/09/12 03:53:58;;;;;;;;;;;17.90;99.90;;;;;;1902142;75;20209;-69
2021/09/12 03:56:25;;;;;;;;;;;17.90;99.90;;;;;;1901584;75;20205;-69
2021/09/12 03:58:52;;;;;;;;;;;17.90;99.90;;;;;;1902475;75;20135;-70
2021/09/12 04:01:19;;;;;;;;;;;17.90;99.90;;;;;;1917382;74;20239;-70
2021/09/12 04:03:45;;;;;;;;;;;17.90;99.90;;;;;;1920568;75;20216;-70
2021/09/12 04:06:12;;;;;;;;;;;17.90;99.90;;;;;;1920531;75;20197;-69
2021/09/12 04:08:39;;;;;;;;;;;17.90;99.90;;;;;;1920501;75;20239;-70
2021/09/12 04:11:06;;;;;;;;;;;17.90;99.90;;;;;;1920366;75;20145;-70
2021/09/12 04:13:33;;;;;;;;;;;17.90;99.90;;;;;;1914504;74;20422;-70
2021/09/12 04:15:59;;;;;;;;;;;17.90;99.90;;;;;;1902203;75;20147;-69
2021/09/12 04:18:26;;;;;;;;;;;17.80;99.90;;;;;;1902190;75;20513;-69
2021/09/12 04:20:53;;;;;;;;;;;17.80;99.90;;;;;;1902264;75;20171;-70
2021/09/12 04:23:20;;;;;;;;;;;17.80;99.90;;;;;;1902224;75;20124;-70
2021/09/12 04:25:47;;;;;;;;;;;17.80;99.90;;;;;;1902080;75;20167;-70
2021/09/12 04:28:13;;;;;;;;;;;17.90;99.90;;;;;;1915581;74;20216;-69
2021/09/12 04:30:41;;;;;;;;;;;17.90;99.90;;;;;;1930164;74;20180;-70
2021/09/12 04:33:08;;;;;;;;;;;17.90;99.90;;;;;;1930536;74;20180;-69
2021/09/12 04:35:35;;;;;;;;;;;18.00;99.90;;;;;;1930088;74;20179;-70
2021/09/12 04:38:03;;;;;;;;;;;17.90;99.90;;;;;;1930514;74;20181;-69
2021/09/12 04:40:30;;;;;;;;;;;18.00;99.90;;;;;;1930448;74;20189;-69
2021/09/12 04:42:57;;;;;;;;;;;18.00;99.90;;;;;;1930526;74;20169;-69
2021/09/12 04:45:24;;;;;;;;;;;17.90;99.90;;;;;;1920782;74;20186;-69
2021/09/12 04:47:51;;;;;;;;;;;17.90;99.90;;;;;;1920510;75;20197;-70
2021/09/12 04:50:18;;;;;;;;;;;17.90;99.90;;;;;;1920588;75;20178;-69
2021/09/12 04:52:44;;;;;;;;;;;17.90;99.90;;;;;;1911689;74;20165;-70
2021/09/12 04:55:11;;;;;;;;;;;17.90;99.90;;;;;;1902048;75;20187;-69
2021/09/12 04:57:38;;;;;;;;;;;17.90;99.90;;;;;;1902241;75;20166;-70
2021/09/12 05:00:06;;;;;;;;;;;17.90;99.90;;;;;;1892996;75;20137;-70
2021/09/12 05:02:32;;;;;;;;;;;18.00;99.90;;;;;;1868434;77;20168;-70
2021/09/12 05:04:59;;;;;;;;;;;17.90;99.90;;;;;;1868049;77;20114;-69
2021/09/12 05:07:26;;;;;;;;;;;17.90;99.90;;;;;;1891662;75;20163;-70
2021/09/12 05:09:53;;;;;;;;;;;17.80;99.90;;;;;;1904209;75;20112;-70
2021/09/12 05:12:20;;;;;;;;;;;17.80;99.90;;;;;;1904152;75;20139;-70
2021/09/12 05:14:46;;;;;;;;;;;17.90;99.90;;;;;;1904118;75;20171;-70
2021/09/12 05:17:13;;;;;;;;;;;18.00;99.90;;;;;;1904126;75;20147;-70
2021/09/12 05:19:40;;;;;;;;;;;18.00;99.90;;;;;;1904198;75;20189;-69
2021/09/12 05:22:07;;;;;;;;;;;18.00;99.90;;;;;;1904037;75;20166;-70
2021/09/12 05:24:34;;;;;;;;;;;18.00;99.90;;;;;;1902732;75;20119;-70
2021/09/12 05:27:00;;;;;;;;;;;18.00;99.90;;;;;;1902219;75;20251;-70
2021/09/12 05:29:27;;;;;;;;;;;18.00;99.90;;;;;;1904108;74;20220;-70
2021/09/12 05:31:54;;;;;;;;;;;18.00;99.90;;;;;;1890318;75;20118;-70
2021/09/12 05:34:21;;;;;;;;;;;18.00;99.90;;;;;;1896795;75;20175;-70
2021/09/12 05:36:47;;;;;;;;;;;18.00;99.90;;;;;;1900765;75;20112;-70
2021/09/12 05:39:14;;;;;;;;;;;18.00;99.90;;;;;;1901689;75;20158;-70
2021/09/12 05:41:41;;;;;;;;;;;18.10;99.90;;;;;;1900644;75;20151;-70
2021/09/12 05:44:08;;;;;;;;;;;18.10;99.90;;;;;;1899439;75;20252;-70
2021/09/12 05:46:36;;;;;;;;;;;18.10;99.90;;;;;;1899941;75;20233;-69
2021/09/12 05:49:04;;;;;;;;;;;18.10;99.90;;;;;;1917438;74;20185;-70
2021/09/12 05:51:30;;;;;;;;;;;18.10;99.90;;;;;;1870006;77;20114;-70
2021/09/12 05:53:57;;;;;;;;;;;18.10;99.90;;;;;;1879498;75;20163;-70
2021/09/12 05:56:24;;;;;;;;;;;18.10;99.90;;;;;;1897702;75;20128;-70
2021/09/12 05:58:51;;;;;;;;;;;18.10;99.90;;;;;;1882577;75;20166;-70
2021/09/12 06:01:19;;;;;;;;;;;18.10;99.90;;;;;;1908259;74;20205;-69
2021/09/12 06:03:46;;;;;;;;;;;18.10;99.90;;;;;;1923570;74;20229;-69
2021/09/12 06:06:13;;;;;;;;;;;18.20;99.90;;;;;;1910544;74;20172;-69
2021/09/12 06:08:40;;;;;;;;;;;18.10;99.90;;;;;;1927324;74;20181;-69
2021/09/12 06:11:10;;;;;;;;;;;18.10;99.90;;;;;;1902700;75;20112;-69
2021/09/12 06:13:35;;;;;;;;;;;18.20;99.90;;;;;;1889509;75;20841;-69
2021/09/12 06:16:02;;;;;;;;;;;18.10;99.90;;;;;;1902331;75;20159;-68
2021/09/12 06:18:29;;;;;;;;;;;18.10;99.90;;;;;;1902421;75;20468;-69
2021/09/12 06:20:55;;;;;;;;;;;18.10;99.90;;;;;;1892030;74;20303;-68
2021/09/12 06:23:22;;;;;;;;;;;18.20;99.90;;;;;;1871492;75;20493;-68
2021/09/12 06:25:49;;;;;;;;;;;18.20;99.90;;;;;;1875822;74;20203;-68
2021/09/12 06:28:16;;;;;;;;;;;18.30;99.90;;;;;;1870074;77;20153;-69
2021/09/12 06:30:43;;;;;;;;;;;18.20;99.90;;;;;;1877619;75;20130;-68
2021/09/12 06:33:10;;;;;;;;;;;18.20;99.90;;;;;;1870076;77;20157;-68
2021/09/12 06:35:37;;;;;;;;;;;18.30;99.90;;;;;;1884878;74;20194;-69
2021/09/12 06:38:03;;;;;;;;;;;18.30;99.90;;;;;;1892363;75;20223;-69
2021/09/12 06:40:31;;;;;;;;;;;18.30;99.90;;;;;;1902087;75;20898;-69
2021/09/12 06:42:58;;;;;;;;;;;18.30;99.90;;;;;;1905356;75;20149;-69
2021/09/12 06:45:26;;;;;;;;;;;18.30;99.90;;;;;;1899807;75;20239;-68
2021/09/12 06:47:53;;;;;;;;;;;18.20;99.90;;;;;;1899924;75;20472;-69
2021/09/12 06:50:21;;;;;;;;;;;18.30;99.90;;;;;;1874845;75;20820;-69
2021/09/12 06:52:48;;;;;;;;;;;18.30;99.90;;;;;;1882374;74;20107;-69
2021/09/12 06:55:15;;;;;;;;;;;18.40;99.90;;;;;;1891431;74;20179;-69
2021/09/12 06:57:42;;;;;;;;;;;18.30;99.90;;;;;;1899163;75;20167;-69
2021/09/12 07:00:10;;;;;;;;;;;18.30;99.90;;;;;;1871247;75;20196;-69
2021/09/12 07:02:38;;;;;;;;;;;18.40;99.90;;;;;;1901979;74;20167;-69
2021/09/12 07:05:06;;;;;;;;;;;18.30;99.90;;;;;;1898964;74;20447;-69
2021/09/12 07:07:33;;;;;;;;;;;18.30;99.90;;;;;;1894109;74;20216;-69
2021/09/12 07:10:00;;;;;;;;;;;18.30;99.90;;;;;;1907160;75;20400;-69
2021/09/12 07:12:27;;;;;;;;;;;18.30;99.90;;;;;;1907138;74;20258;-69
2021/09/12 07:14:54;;;;;;;;;;;18.40;99.90;;;;;;1882901;75;20206;-69
2021/09/12 07:17:20;;;;;;;;;;;18.40;99.90;;;;;;1882933;74;20412;-69
2021/09/12 07:19:47;;;;;;;;;;;18.40;99.90;;;;;;1870058;77;20184;-69
2021/09/12 07:22:14;;;;;;;;;;;18.40;99.90;;;;;;1870186;77;20160;-69
2021/09/12 07:24:41;;;;;;;;;;;18.40;99.90;;;;;;1869988;77;20176;-68
2021/09/12 07:27:08;;;;;;;;;;;18.30;99.90;;;;;;1869258;77;20229;-69
2021/09/12 07:29:35;;;;;;;;;;;18.40;99.90;;;;;;1875156;74;20122;-69
2021/09/12 07:32:02;;;;;;;;;;;18.40;99.90;;;;;;1911487;74;20189;-69
2021/09/12 07:34:28;;;;;;;;;;;18.50;99.90;;;;;;1930429;74;20430;-69
2021/09/12 07:36:55;;;;;;;;;;;18.60;99.90;;;;;;1930471;74;20350;-69
2021/09/12 07:39:22;;;;;;;;;;;18.50;99.90;;;;;;1930720;74;20462;-68
2021/09/12 07:41:49;;;;;;;;;;;18.40;99.90;;;;;;1930695;74;20189;-68
2021/09/12 07:44:16;;;;;;;;;;;18.50;99.90;;;;;;1928470;74;20475;-68
2021/09/12 07:46:43;;;;;;;;;;;18.50;99.90;;;;;;1930823;74;20169;-68
2021/09/12 07:49:09;;;;;;;;;;;18.50;99.90;;;;;;1930531;74;20212;-68
2021/09/12 07:51:36;;;;;;;;;;;18.50;99.90;;;;;;1930648;74;20193;-68
2021/09/12 07:54:03;;;;;;;;;;;18.50;99.90;;;;;;1930594;74;20192;-68
2021/09/12 07:56:30;;;;;;;;;;;18.60;99.90;;;;;;1869740;77;20298;-68
2021/09/12 07:58:57;;;;;;;;;;;18.50;99.90;;;;;;1870331;77;20204;-68
2021/09/12 08:01:23;;;;;;;;;;;18.60;99.90;;;;;;1870186;77;20117;-68
2021/09/12 08:03:50;;;;;;;;;;;18.60;99.90;;;;;;1869948;77;20493;-68
2021/09/12 08:06:17;;;;;;;;;;;18.50;99.90;;;;;;1869820;77;20157;-68
2021/09/12 08:08:44;;;;;;;;;;;18.60;99.90;;;;;;1879658;74;20509;-68
2021/09/12 08:11:11;;;;;;;;;;;18.60;99.90;;;;;;1930626;74;20188;-68
2021/09/12 08:13:37;;;;;;;;;;;18.60;99.90;;;;;;1930912;74;20193;-68
2021/09/12 08:16:04;;;;;;;;;;;18.60;99.90;;;;;;1930488;74;20161;-68
2021/09/12 08:18:31;;;;;;;;;;;18.60;99.90;;;;;;1930538;74;20180;-68
2021/09/12 08:20:58;;;;;;;;;;;18.60;99.90;;;;;;1924262;74;20119;-68
2021/09/12 08:23:25;;;;;;;;;;;18.70;99.90;;;;;;1902303;75;20241;-68
2021/09/12 08:25:51;;;;;;;;;;;18.80;99.90;;;;;;1902527;75;20154;-69
2021/09/12 08:28:18;;;;;;;;;;;18.80;99.90;;;;;;1902311;75;20186;-68
2021/09/12 08:30:45;;;;;;;;;;;18.80;99.90;;;;;;1902498;75;20162;-68
2021/09/12 08:33:13;;;;;;;;;;;18.80;99.90;;;;;;1902511;75;20128;-68
2021/09/12 08:35:40;;;;;;;;;;;18.90;99.90;;;;;;1902966;75;20452;-70
2021/09/12 08:38:07;;;;;;;;;;;18.80;99.90;;;;;;1904336;75;20186;-69
2021/09/12 08:40:34;;;;;;;;;;;18.80;99.90;;;;;;1904289;75;20225;-69
2021/09/12 08:43:01;;;;;;;;;;;18.80;99.90;;;;;;1904338;75;20182;-69
2021/09/12 08:45:28;;;;;;;;;;;18.80;99.90;;;;;;1904163;75;20116;-69
2021/09/12 08:47:55;;;;;;;;;;;18.80;99.90;;;;;;1904299;75;20213;-69
2021/09/12 08:50:22;;;;;;;;;;;18.80;99.90;;;;;;1904217;75;20174;-69
2021/09/12 08:52:49;;;;;;;;;;;18.90;99.90;;;;;;1903300;75;20163;-69
2021/09/12 08:55:16;;;;;;;;;;;18.90;99.90;;;;;;1902302;75;20503;-69
2021/09/12 08:57:47;;;;;;;;;;;18.90;99.90;;;;;;1893593;75;20130;-69
2021/09/12 09:00:15;;;;;;;;;;;18.90;99.90;;;;;;1868652;77;20150;-69
2021/09/12 09:02:42;;;;;;;;;;;18.80;99.90;;;;;;1868439;77;20578;-69
2021/09/12 09:05:09;;;;;;;;;;;18.90;99.90;;;;;;1873712;75;20175;-69
2021/09/12 09:07:35;;;;;;;;;;;18.90;99.90;;;;;;1868528;77;20150;-69
2021/09/12 09:10:05;;;;;;;;;;;18.90;99.90;;;;;;1899842;74;20168;-69
2021/09/12 09:12:36;;;;;;;;;;;18.90;99.90;;;;;;1902168;75;20119;-69
2021/09/12 09:15:12;;;;;;;;;;;19.00;99.90;;;;;;1902402;75;20178;-69
2021/09/12 09:17:45;;;;;;;;;;;19.00;99.90;;;;;;1902413;75;20506;-69
2021/09/12 09:20:17;;;;;;;;;;;19.00;99.90;;;;;;1902352;75;20174;-69
2021/09/12 09:22:45;;;;;;;;;;;19.10;99.90;;;;;;1902437;75;20158;-69
2021/09/12 09:25:13;;;;;;;;;;;19.20;99.90;;;;;;1903514;74;20619;-69
2021/09/12 09:27:50;;;;;;;;;;;19.20;99.90;;;;;;1902446;75;20392;-70
2021/09/12 09:30:17;;;;;;;;;;;19.30;99.90;;;;;;1898963;74;20328;-69
2021/09/12 09:32:44;;;;;;;;;;;19.40;99.90;;;;;;1902432;75;20127;-69
2021/09/12 09:35:15;;;;;;;;;;;19.60;99.90;;;;;;1902275;75;20171;-69
2021/09/12 09:37:48;;;;;;;;;;;19.40;99.90;;;;;;1901370;75;20187;-69
2021/09/12 09:40:15;;;;;;;;;;;19.50;99.90;;;;;;1902350;75;20171;-69
2021/09/12 09:42:43;;;;;;;;;;;19.40;99.90;;;;;;1908687;74;20130;-69
2021/09/12 09:45:17;;;;;;;;;;;19.40;99.90;;;;;;1930490;74;20232;-69
2021/09/12 09:47:46;;;;;;;;;;;19.40;99.90;;;;;;1930709;74;20171;-69
2021/09/12 09:50:14;;;;;;;;;;;19.40;99.90;;;;;;1929998;74;20153;-69
2021/09/12 09:52:42;;;;;;;;;;;19.40;99.90;;;;;;1930797;74;20181;-69
2021/09/12 09:55:10;;;;;;;;;;;19.50;99.90;;;;;;1930533;74;20204;-69
2021/09/12 09:57:37;;;;;;;;;;;19.50;99.90;;;;;;1930704;74;20177;-69
2021/09/12 10:00:04;;;;;;;;;;;19.60;99.90;;;;;;1915057;74;20201;-69
2021/09/12 10:02:36;;;;;;;;;;;19.60;99.90;;;;;;1902497;75;20171;-69
2021/09/12 10:05:04;;;;;;;;;;;19.70;99.90;;;;;;1902391;75;20440;-70
2021/09/12 10:07:31;;;;;;;;;;;19.80;99.90;;;;;;1902642;75;20240;-68
2021/09/12 10:09:58;;;;;;;;;;;19.80;99.90;;;;;;1902435;75;20116;-68
2021/09/12 10:12:25;;;;;;;;;;;19.90;99.90;;;;;;1902709;75;20166;-68
2021/09/12 10:14:54;;;;;;;;;;;20.00;99.90;;;;;;1923527;74;20185;-68
2021/09/12 10:17:21;;;;;;;;;;;20.00;99.90;;;;;;1930962;74;20145;-69
2021/09/12 10:19:48;;;;;;;;;;;20.20;99.90;;;;;;1930907;74;20177;-68
2021/09/12 10:22:17;;;;;;;;;;;20.20;99.90;;;;;;1930782;74;20199;-68
2021/09/12 10:24:48;;;;;;;;;;;20.30;99.90;;;;;;1929987;74;20200;-67
2021/09/12 10:27:34;;;;;;;;;;;20.20;99.90;;;;;;1919975;74;20529;-68
2021/09/12 10:30:19;;;;;;;;;;;20.20;99.90;;;;;;1928685;74;20149;-68
2021/09/12 10:32:46;;;;;;;;;;;20.20;99.90;;;;;;1930812;74;20979;-69
2021/09/12 10:35:29;;;;;;;;;;;20.20;99.90;;;;;;1912249;74;20238;-68
2021/09/12 10:38:00;;;;;;;;;;;20.20;99.90;;;;;;1902635;75;20355;-68
2021/09/12 10:40:28;;;;;;;;;;;20.30;99.90;;;;;;1917249;74;20193;-68
2021/09/12 10:42:55;;;;;;;;;;;20.30;99.90;;;;;;1916023;75;20466;-68
2021/09/12 10:45:23;;;;;;;;;;;20.30;99.90;;;;;;1920735;75;20151;-66
2021/09/12 10:47:50;;;;;;;;;;;20.30;99.90;;;;;;1920805;75;20698;-67
2021/09/12 10:50:35;;;;;;;;;;;20.40;99.90;;;;;;1922114;74;20173;-66
2021/09/12 10:53:02;;;;;;;;;;;20.40;99.90;;;;;;1902519;75;20112;-66
2021/09/12 10:55:29;;;;;;;;;;;20.40;99.90;;;;;;1902379;75;20171;-67
2021/09/12 10:57:55;;;;;;;;;;;20.40;99.90;;;;;;1902517;75;20397;-67
2021/09/12 11:00:22;;;;;;;;;;;20.30;99.90;;;;;;1902418;75;20151;-68
2021/09/12 11:02:49;;;;;;;;;;;20.30;99.90;;;;;;1893588;75;20180;-68
2021/09/12 11:05:24;;;;;;;;;;;20.40;99.90;;;;;;1880133;74;20119;-68
2021/09/12 11:07:54;;;;;;;;;;;20.40;99.90;;;;;;1901738;75;20256;-68
2021/09/12 11:10:37;;;;;;;;;;;20.50;99.90;;;;;;1902384;75;20242;-67
2021/09/12 11:13:04;;;;;;;;;;;20.60;99.90;;;;;;1902579;75;20124;-68
2021/09/12 11:15:31;;;;;;;;;;;20.70;99.90;;;;;;1900455;74;20175;-67
2021/09/12 11:17:58;;;;;;;;;;;20.80;99.90;;;;;;1868816;77;20424;-67
2021/09/12 11:20:44;;;;;;;;;;;20.80;99.90;;;;;;1868539;77;20214;-68
2021/09/12 11:23:11;;;;;;;;;;;20.80;99.90;;;;;;1868584;77;20176;-68
2021/09/12 11:25:38;;;;;;;;;;;20.80;99.90;;;;;;1868429;77;20138;-68
2021/09/12 11:28:06;;;;;;;;;;;20.90;99.90;;;;;;1883424;74;20509;-68
2021/09/12 11:30:34;;;;;;;;;;;20.80;99.90;;;;;;1905255;74;20209;-68
2021/09/12 11:33:05;;;;;;;;;;;20.70;99.90;;;;;;1914457;74;20413;-68
2021/09/12 11:35:29;;;;;;;;;;;20.70;99.90;;;;;;1920093;75;20239;-69
2021/09/12 11:38:09;;;;;;;;;;;20.60;99.90;;;;;;1920658;75;20149;-67
2021/09/12 11:40:37;;;;;;;;;;;20.60;99.90;;;;;;1920786;75;20176;-66
2021/09/12 11:43:19;;;;;;;;;;;20.60;99.90;;;;;;1910897;75;20205;-66
2021/09/12 11:45:48;;;;;;;;;;;20.50;99.90;;;;;;1898641;75;20166;-66
2021/09/12 11:48:15;;;;;;;;;;;20.50;99.90;;;;;;1898940;75;20366;-66
2021/09/12 11:50:43;;;;;;;;;;;20.50;99.90;;;;;;1904195;75;20451;-69
2021/09/12 11:53:11;;;;;;;;;;;20.50;99.90;;;;;;1903769;75;20565;-67
2021/09/12 11:55:43;;;;;;;;;;;20.50;99.90;;;;;;1902496;74;20119;-67
2021/09/12 11:58:07;;;;;;;;;;;20.50;99.90;;;;;;1899712;74;20213;-67
2021/09/12 12:00:35;;;;;;;;;;;20.50;99.90;;;;;;1893700;74;20194;-67
2021/09/12 12:03:03;;;;;;;;;;;20.50;99.90;;;;;;1896355;75;20171;-68
2021/09/12 12:05:30;;;;;;;;;;;20.50;99.90;;;;;;1889659;75;20115;-66
2021/09/12 12:08:04;;;;;;;;;;;20.60;99.90;;;;;;1894049;75;20236;-67
2021/09/12 12:10:32;;;;;;;;;;;20.60;99.90;;;;;;1889129;75;20148;-67
2021/09/12 12:12:59;;;;;;;;;;;20.70;99.90;;;;;;1895291;74;20228;-67
2021/09/12 12:15:33;;;;;;;;;;;20.70;99.90;;;;;;1896201;74;20123;-68
2021/09/12 12:18:00;;;;;;;;;;;20.60;99.90;;;;;;1898300;75;20187;-68
2021/09/12 12:20:33;;;;;;;;;;;20.60;99.90;;;;;;1889451;75;20172;-68
2021/09/12 12:23:18;;;;;;;;;;;20.60;99.90;;;;;;1888087;75;20245;-68
2021/09/12 12:25:47;;;;;;;;;;;20.60;99.90;;;;;;1893116;75;20155;-69
2021/09/12 12:28:18;;;;;;;;;;;20.50;99.90;;;;;;1894580;75;20115;-69
2021/09/12 12:30:46;;;;;;;;;;;20.60;99.90;;;;;;1897659;75;20171;-69
2021/09/12 12:33:15;;;;;;;;;;;20.70;99.90;;;;;;1897365;75;20205;-69
2021/09/12 12:35:42;;;;;;;;;;;20.60;99.90;;;;;;1891766;75;20408;-69
2021/09/12 12:38:09;;;;;;;;;;;20.70;99.90;;;;;;1899979;75;20453;-69
2021/09/12 12:40:36;;;;;;;;;;;20.70;99.90;;;;;;1891464;75;20186;-69
2021/09/12 12:43:04;;;;;;;;;;;20.60;99.90;;;;;;1895848;75;20282;-69
2021/09/12 12:45:32;;;;;;;;;;;20.60;99.90;;;;;;1896949;75;20221;-69
2021/09/12 12:48:10;;;;;;;;;;;20.50;99.90;;;;;;1900338;75;20170;-69
2021/09/12 12:50:41;;;;;;;;;;;20.50;99.90;;;;;;1891753;75;20112;-69
2021/09/12 12:53:14;;;;;;;;;;;20.40;99.90;;;;;;1895964;75;20182;-69
2021/09/12 12:55:40;;;;;;;;;;;20.50;99.90;;;;;;1892996;74;20100;-68
2021/09/12 12:58:12;;;;;;;;;;;20.50;99.90;;;;;;1897265;75;20472;-69
2021/09/12 13:00:36;;;;;;;;;;;20.40;99.90;;;;;;1893228;75;20171;-69
2021/09/12 13:03:03;;;;;;;;;;;20.40;99.90;;;;;;1895501;74;20241;-69
2021/09/12 13:05:29;;;;;;;;;;;20.40;99.90;;;;;;1889337;75;20216;-68
2021/09/12 13:07:56;;;;;;;;;;;20.40;99.90;;;;;;1892999;75;20449;-69
2021/09/12 13:10:23;;;;;;;;;;;20.30;99.90;;;;;;1893359;75;20161;-69
2021/09/12 13:12:50;;;;;;;;;;;20.30;99.90;;;;;;1893995;75;20194;-69
2021/09/12 13:15:17;;;;;;;;;;;20.20;99.90;;;;;;1891816;75;20190;-68
2021/09/12 13:17:44;;;;;;;;;;;20.20;99.90;;;;;;1901050;75;20213;-68
2021/09/12 13:20:11;;;;;;;;;;;20.20;99.90;;;;;;1892547;74;20194;-68
2021/09/12 13:22:38;;;;;;;;;;;20.20;99.90;;;;;;1892831;74;20167;-69
2021/09/12 13:25:05;;;;;;;;;;;20.30;99.90;;;;;;1893201;74;20467;-68
2021/09/12 13:27:32;;;;;;;;;;;20.30;99.90;;;;;;1893389;74;20177;-69
2021/09/12 13:29:59;;;;;;;;;;;20.30;99.90;;;;;;1892402;74;20256;-68
2021/09/12 13:32:25;;;;;;;;;;;20.40;99.90;;;;;;1890736;75;20194;-69
2021/09/12 13:34:52;;;;;;;;;;;20.50;99.90;;;;;;1899279;74;20214;-69
2021/09/12 13:37:19;;;;;;;;;;;20.90;99.90;;;;;;1890853;75;20127;-67
2021/09/12 13:39:46;;;;;;;;;;;21.20;99.90;;;;;;1888997;74;20284;-68
2021/09/12 13:42:13;;;;;;;;;;;21.40;99.90;;;;;;1896963;75;20202;-67
2021/09/12 13:44:39;;;;;;;;;;;21.60;99.90;;;;;;1889586;74;20241;-67
2021/09/12 13:47:06;;;;;;;;;;;21.70;99.90;;;;;;1895778;75;20299;-67
2021/09/12 13:49:33;;;;;;;;;;;22.00;99.90;;;;;;1890734;75;20444;-67
2021/09/12 13:52:00;;;;;;;;;;;22.20;99.90;;;;;;1889710;74;20150;-68
2021/09/12 13:54:27;;;;;;;;;;;22.50;99.90;;;;;;1894780;75;20420;-67
2021/09/12 13:56:53;;;;;;;;;;;22.70;99.90;;;;;;1894757;74;20230;-67
2021/09/12 13:59:20;;;;;;;;;;;22.80;99.90;;;;;;1895989;75;20379;-67
2021/09/12 14:01:47;;;;;;;;;;;22.90;99.90;;;;;;1893412;74;20190;-67
2021/09/12 14:04:14;;;;;;;;;;;22.70;99.90;;;;;;1893920;74;20448;-67
2021/09/12 14:06:40;;;;;;;;;;;22.40;99.90;;;;;;1896555;74;20174;-67
2021/09/12 14:09:07;;;;;;;;;;;22.60;99.90;;;;;;1895389;74;20252;-68
2021/09/12 14:11:34;;;;;;;;;;;22.50;99.90;;;;;;1894492;74;20155;-67
2021/09/12 14:14:01;;;;;;;;;;;22.30;99.90;;;;;;1897127;75;20181;-67
2021/09/12 14:16:28;;;;;;;;;;;22.10;99.90;;;;;;1895554;75;20377;-67
2021/09/12 14:18:55;;;;;;;;;;;22.20;99.90;;;;;;1891562;75;20161;-67